createdAt,value
2018-12-06T00:01:12.709Z,62.26
2018-12-06T00:03:42.604Z,62.42
2018-12-06T00:06:12.468Z,62.05
2018-12-06T00:08:43.729Z,62.10
2018-12-06T00:11:13.648Z,62.82
2018-12-06T00:13:43.596Z,62.68
2018-12-06T00:16:13.475Z,62.30
2018-12-06T00:18:45.449Z,62.44
2018-12-06T00:21:15.305Z,63.54
2018-12-06T00:23:45.773Z,63.20
2018-12-06T00:26:16.116Z,62.99
2018-12-06T00:28:45.944Z,63.94
2018-12-06T00:31:15.850Z,63.78
2018-12-06T00:33:45.729Z,63.52
2018-12-06T00:36:15.653Z,63.07
2018-12-06T00:38:45.614Z,63.03
2018-12-06T00:41:15.457Z,62.97
2018-12-06T00:43:45.410Z,63.40
2018-12-06T00:46:15.818Z,63.06
2018-12-06T00:48:45.759Z,63.04
2018-12-06T00:51:15.659Z,62.67
2018-12-06T00:53:47.014Z,63.18
2018-12-06T00:56:17.042Z,62.78
2018-12-06T00:58:47.026Z,63.17
2018-12-06T01:01:17.051Z,63.91
2018-12-06T01:03:46.921Z,63.87
2018-12-06T01:06:16.810Z,63.92
2018-12-06T01:08:46.689Z,63.74
2018-12-06T01:11:16.816Z,63.60
2018-12-06T01:13:46.871Z,63.69
2018-12-06T01:16:17.658Z,63.92
2018-12-06T01:18:47.540Z,63.58
2018-12-06T01:21:17.470Z,63.29
2018-12-06T01:23:47.401Z,64.02
2018-12-06T01:26:17.717Z,64.03
2018-12-06T01:28:47.750Z,63.56
2018-12-06T01:31:18.043Z,63.59
2018-12-06T01:33:47.958Z,64.00
2018-12-06T01:36:17.805Z,63.81
2018-12-06T01:38:47.649Z,63.85
2018-12-06T01:41:18.104Z,64.23
2018-12-06T01:43:48.044Z,64.53
2018-12-06T01:46:17.871Z,65.11
2018-12-06T01:48:47.935Z,64.56
2018-12-06T01:51:17.890Z,65.68
2018-12-06T01:53:47.878Z,65.80
2018-12-06T01:56:17.769Z,65.92
2018-12-06T01:58:47.604Z,65.76
2018-12-06T02:01:17.455Z,66.10
2018-12-06T02:03:47.336Z,65.22
2018-12-06T02:06:17.257Z,65.75
2018-12-06T02:08:47.114Z,65.49
2018-12-06T02:11:16.973Z,65.65
2018-12-06T02:13:46.849Z,65.55
2018-12-06T02:16:16.816Z,65.60
2018-12-06T02:18:46.749Z,65.87
2018-12-06T02:21:16.587Z,65.88
2018-12-06T02:23:46.556Z,65.41
2018-12-06T02:26:16.553Z,65.11
2018-12-06T02:28:46.601Z,65.01
2018-12-06T02:31:16.457Z,65.28
2018-12-06T02:33:46.805Z,65.42
2018-12-06T02:36:16.662Z,65.46
2018-12-06T02:38:46.554Z,65.29
2018-12-06T02:41:16.629Z,64.76
2018-12-06T02:43:46.584Z,64.94
2018-12-06T02:46:16.478Z,64.76
2018-12-06T02:48:46.325Z,64.71
2018-12-06T02:51:16.190Z,64.77
2018-12-06T02:53:46.122Z,65.20
2018-12-06T02:56:16.021Z,65.52
2018-12-06T02:58:45.942Z,65.24
2018-12-06T03:01:15.883Z,65.33
2018-12-06T03:03:45.844Z,65.22
2018-12-06T03:06:15.700Z,65.38
2018-12-06T03:08:45.511Z,64.99
2018-12-06T03:11:15.427Z,64.99
2018-12-06T03:13:45.697Z,65.31
2018-12-06T03:16:15.543Z,65.29
2018-12-06T03:18:45.437Z,65.36
2018-12-06T03:21:15.297Z,65.68
2018-12-06T03:23:45.168Z,65.35
2018-12-06T03:26:15.103Z,65.49
2018-12-06T03:28:44.982Z,65.92
2018-12-06T03:31:14.929Z,65.69
2018-12-06T03:33:44.847Z,65.74
2018-12-06T03:36:14.869Z,65.59
2018-12-06T03:38:44.706Z,66.14
2018-12-06T03:41:14.574Z,66.08
2018-12-06T03:43:44.490Z,66.21
2018-12-06T03:46:14.379Z,66.21
2018-12-06T03:48:44.254Z,66.11
2018-12-06T03:51:14.064Z,66.07
2018-12-06T03:53:43.889Z,65.87
2018-12-06T03:56:13.741Z,66.27
2018-12-06T03:58:43.572Z,66.79
2018-12-06T04:01:13.577Z,66.41
2018-12-06T04:03:44.461Z,66.72
2018-12-06T04:06:14.312Z,66.98
2018-12-06T04:08:44.237Z,66.41
2018-12-06T04:11:14.254Z,66.39
2018-12-06T04:13:44.150Z,66.72
2018-12-06T04:16:13.987Z,66.69
2018-12-06T04:18:43.873Z,66.22
2018-12-06T04:21:14.182Z,66.48
2018-12-06T04:23:44.104Z,66.81
2018-12-06T04:26:14.037Z,66.88
2018-12-06T04:28:44.729Z,66.80
2018-12-06T04:31:14.665Z,66.76
2018-12-06T04:33:44.859Z,66.85
2018-12-06T04:36:14.708Z,67.10
2018-12-06T04:38:44.623Z,67.14
2018-12-06T04:41:14.596Z,66.65
2018-12-06T04:43:44.550Z,66.95
2018-12-06T04:46:14.396Z,66.81
2018-12-06T04:48:44.250Z,67.21
2018-12-06T04:51:14.301Z,66.90
2018-12-06T04:53:44.199Z,67.11
2018-12-06T04:56:14.045Z,67.17
2018-12-06T04:58:43.934Z,67.39
2018-12-06T05:01:13.796Z,67.26
2018-12-06T05:03:43.694Z,67.33
2018-12-06T05:06:13.869Z,67.30
2018-12-06T05:08:44.305Z,67.02
2018-12-06T05:11:14.205Z,67.06
2018-12-06T05:13:44.146Z,67.34
2018-12-06T05:16:13.967Z,67.19
2018-12-06T05:18:44.054Z,67.02
2018-12-06T05:21:14.552Z,67.08
2018-12-06T05:23:44.508Z,67.23
2018-12-06T05:26:14.900Z,67.17
2018-12-06T05:28:44.910Z,67.93
2018-12-06T05:31:14.932Z,68.15
2018-12-06T05:33:45.533Z,67.79
2018-12-06T05:36:15.476Z,67.51
2018-12-06T05:38:45.516Z,67.33
2018-12-06T05:41:15.354Z,67.24
2018-12-06T05:43:45.235Z,67.54
2018-12-06T05:46:15.064Z,67.46
2018-12-06T05:48:44.947Z,67.61
2018-12-06T05:51:14.815Z,67.76
2018-12-06T05:53:44.626Z,67.45
2018-12-06T05:56:15.129Z,67.49
2018-12-06T05:58:45.379Z,67.32
2018-12-06T06:01:15.245Z,67.17
2018-12-06T06:03:45.251Z,67.08
2018-12-06T06:06:15.209Z,67.30
2018-12-06T06:08:45.210Z,67.54
2018-12-06T06:11:15.803Z,67.48
2018-12-06T06:13:46.412Z,67.76
2018-12-06T06:16:16.248Z,67.14
2018-12-06T06:18:46.136Z,66.99
2018-12-06T06:21:16.640Z,67.00
2018-12-06T06:23:46.908Z,67.39
2018-12-06T06:26:16.927Z,66.99
2018-12-06T06:28:46.789Z,67.10
2018-12-06T06:31:16.774Z,67.20
2018-12-06T06:33:46.641Z,67.28
2018-12-06T06:36:16.534Z,67.14
2018-12-06T06:38:46.378Z,67.44
2018-12-06T06:41:16.253Z,67.67
2018-12-06T06:43:46.084Z,67.47
2018-12-06T06:46:15.901Z,67.34
2018-12-06T06:48:45.889Z,66.98
2018-12-06T06:51:15.753Z,66.97
2018-12-06T06:53:45.596Z,66.93
2018-12-06T06:56:15.996Z,67.09
2018-12-06T06:58:48.335Z,66.78
2018-12-06T07:01:18.195Z,67.12
2018-12-06T07:03:48.001Z,66.89
2018-12-06T07:06:17.857Z,66.94
2018-12-06T07:08:47.697Z,66.75
2018-12-06T07:11:17.585Z,66.88
2018-12-06T07:13:47.427Z,67.15
2018-12-06T07:16:17.239Z,67.04
2018-12-06T07:18:47.092Z,66.97
2018-12-06T07:21:16.918Z,66.77
2018-12-06T07:23:47.065Z,66.84
2018-12-06T07:26:16.893Z,66.68
2018-12-06T07:28:46.730Z,66.38
2018-12-06T07:31:16.988Z,67.00
2018-12-06T07:33:46.862Z,66.74
2018-12-06T07:36:18.522Z,66.93
2018-12-06T07:38:49.353Z,66.97
2018-12-06T07:41:19.330Z,66.55
2018-12-06T07:43:49.142Z,66.51
2018-12-06T07:46:18.986Z,66.69
2018-12-06T07:48:48.887Z,66.78
2018-12-06T07:51:18.735Z,66.52
2018-12-06T07:53:48.597Z,66.57
2018-12-06T07:56:18.447Z,66.27
2018-12-06T07:58:48.538Z,66.49
2018-12-06T08:01:18.415Z,66.77
2018-12-06T08:03:48.272Z,66.64
2018-12-06T08:06:18.098Z,67.05
2018-12-06T08:08:48.004Z,67.19
2018-12-06T08:11:18.100Z,67.33
2018-12-06T08:13:48.824Z,67.32
2018-12-06T08:16:18.658Z,67.54
2018-12-06T08:18:48.508Z,67.73
2018-12-06T08:21:18.359Z,67.49
2018-12-06T08:23:48.179Z,67.13
2018-12-06T08:26:19.769Z,67.27
2018-12-06T08:28:53.794Z,67.24
2018-12-06T08:31:23.673Z,66.85
2018-12-06T08:33:53.551Z,67.08
2018-12-06T08:36:27.026Z,66.68
2018-12-06T08:38:56.862Z,66.92
2018-12-06T08:41:27.486Z,66.77
2018-12-06T08:43:57.506Z,66.77
2018-12-06T08:46:28.403Z,66.92
2018-12-06T08:49:03.011Z,66.48
2018-12-06T08:51:35.134Z,66.36
2018-12-06T08:54:05.322Z,66.26
2018-12-06T08:56:35.161Z,66.21
2018-12-06T08:59:05.138Z,66.53
2018-12-06T09:01:34.966Z,66.50
2018-12-06T09:04:04.909Z,66.18
2018-12-06T09:06:34.761Z,65.98
2018-12-06T09:09:07.635Z,66.35
2018-12-06T09:11:41.982Z,66.45
2018-12-06T09:14:11.858Z,65.87
2018-12-06T09:16:42.046Z,65.54
2018-12-06T09:19:11.898Z,65.32
2018-12-06T09:21:41.773Z,65.38
2018-12-06T09:24:14.929Z,65.34
2018-12-06T09:26:49.004Z,65.29
2018-12-06T09:29:18.841Z,65.15
2018-12-06T09:31:48.704Z,65.28
2018-12-06T09:34:19.315Z,64.45
2018-12-06T09:36:49.142Z,64.97
2018-12-06T09:39:19.006Z,65.00
2018-12-06T09:41:48.838Z,64.43
2018-12-06T09:44:20.362Z,64.36
2018-12-06T09:46:50.206Z,64.14
2018-12-06T09:49:20.050Z,64.72
2018-12-06T09:51:50.007Z,64.45
2018-12-06T09:54:19.852Z,64.11
2018-12-06T09:56:49.707Z,64.19
2018-12-06T09:59:19.565Z,64.29
2018-12-06T10:01:49.408Z,64.10
2018-12-06T10:04:19.275Z,64.37
2018-12-06T10:06:49.119Z,64.07
2018-12-06T10:09:19.093Z,63.67
2018-12-06T10:11:48.929Z,63.65
2018-12-06T10:14:22.434Z,63.64
2018-12-06T10:16:52.378Z,63.32
2018-12-06T10:19:22.234Z,63.16
2018-12-06T10:21:52.819Z,63.54
2018-12-06T10:24:22.694Z,63.05
2018-12-06T10:26:52.621Z,63.38
2018-12-06T10:29:23.077Z,62.83
2018-12-06T10:31:53.152Z,63.02
2018-12-06T10:34:23.005Z,63.32
2018-12-06T10:36:53.575Z,62.81
2018-12-06T10:39:23.530Z,62.59
2018-12-06T10:41:56.920Z,62.97
2018-12-06T10:44:30.067Z,63.13
2018-12-06T10:46:59.957Z,63.21
2018-12-06T10:49:38.039Z,63.11
2018-12-06T10:52:08.030Z,63.08
2018-12-06T10:54:38.968Z,62.82
2018-12-06T10:57:09.378Z,63.31
2018-12-06T10:59:39.365Z,63.11
2018-12-06T11:02:14.570Z,63.33
2018-12-06T11:04:45.481Z,63.27
2018-12-06T11:07:15.345Z,63.11
2018-12-06T11:09:45.610Z,63.29
2018-12-06T11:12:15.523Z,62.72
2018-12-06T11:14:45.531Z,63.54
2018-12-06T11:17:16.065Z,63.55
2018-12-06T11:19:46.813Z,63.42
2018-12-06T11:22:20.323Z,63.61
2018-12-06T11:24:50.257Z,63.09
2018-12-06T11:27:23.781Z,63.41
2018-12-06T11:29:53.698Z,63.87
2018-12-06T11:32:23.662Z,63.69
2018-12-06T11:34:53.560Z,63.83
2018-12-06T11:37:23.451Z,63.88
2018-12-06T11:39:53.391Z,63.96
2018-12-06T11:42:23.574Z,63.82
2018-12-06T11:44:55.266Z,63.17
2018-12-06T11:47:25.176Z,62.88
2018-12-06T11:49:55.073Z,62.55
2018-12-06T11:52:24.958Z,62.95
2018-12-06T11:54:54.871Z,62.42
2018-12-06T11:57:24.783Z,62.41
2018-12-06T11:59:54.638Z,62.14
2018-12-06T12:02:24.514Z,62.10
2018-12-06T12:04:54.429Z,62.21
2018-12-06T12:07:24.282Z,62.26
2018-12-06T12:09:54.151Z,61.41
2018-12-06T12:12:24.909Z,59.88
2018-12-06T12:14:54.827Z,59.73
2018-12-06T12:17:24.716Z,59.10
2018-12-06T12:19:55.538Z,59.53
2018-12-06T12:22:25.390Z,59.63
2018-12-06T12:24:55.353Z,59.38
2018-12-06T12:27:26.770Z,58.86
2018-12-06T12:29:56.981Z,58.37
2018-12-06T12:32:26.863Z,57.69
2018-12-06T12:34:56.746Z,57.76
2018-12-06T12:37:26.634Z,56.67
2018-12-06T12:39:56.472Z,57.05
2018-12-06T12:42:26.356Z,56.74
2018-12-06T12:44:56.258Z,56.82
2018-12-06T12:47:31.192Z,56.94
2018-12-06T12:50:01.113Z,57.79
2018-12-06T12:52:30.991Z,57.47
2018-12-06T12:55:00.898Z,57.47
2018-12-06T12:57:30.741Z,57.10
2018-12-06T13:00:00.638Z,56.74
2018-12-06T13:02:32.588Z,56.00
2018-12-06T13:05:02.466Z,55.22
2018-12-06T13:07:32.342Z,54.73
2018-12-06T13:10:02.212Z,54.05
2018-12-06T13:12:32.101Z,53.58
2018-12-06T13:15:01.979Z,53.84
2018-12-06T13:17:31.989Z,53.17
2018-12-06T13:20:01.919Z,52.83
2018-12-06T13:22:31.794Z,53.44
2018-12-06T13:25:01.686Z,53.23
2018-12-06T13:27:31.656Z,53.83
2018-12-06T13:30:01.509Z,53.36
2018-12-06T13:32:31.623Z,53.48
2018-12-06T13:35:01.476Z,54.24
2018-12-06T13:37:31.609Z,54.64
2018-12-06T13:40:01.504Z,54.38
2018-12-06T13:42:31.414Z,54.17
2018-12-06T13:45:01.338Z,54.38
2018-12-06T13:47:31.254Z,54.34
2018-12-06T13:50:01.123Z,54.46
2018-12-06T13:52:31.003Z,54.55
2018-12-06T13:55:00.839Z,55.16
2018-12-06T13:57:30.693Z,55.11
2018-12-06T14:00:00.659Z,55.57
2018-12-06T14:02:30.532Z,55.88
2018-12-06T14:05:00.377Z,56.45
2018-12-06T14:07:30.246Z,56.30
2018-12-06T14:10:00.126Z,56.34
2018-12-06T14:12:29.995Z,56.19
2018-12-06T14:14:59.850Z,56.70
2018-12-06T14:17:29.737Z,56.96
2018-12-06T14:19:59.652Z,56.83
2018-12-06T14:22:29.583Z,57.75
2018-12-06T14:24:59.673Z,57.55
2018-12-06T14:27:30.327Z,58.31
2018-12-06T14:30:04.536Z,57.81
2018-12-06T14:32:34.407Z,57.75
2018-12-06T14:35:04.471Z,57.71
2018-12-06T14:37:34.385Z,58.40
2018-12-06T14:40:05.410Z,58.28
2018-12-06T14:42:35.361Z,58.21
2018-12-06T14:45:06.075Z,58.56
2018-12-06T14:47:36.068Z,58.72
2018-12-06T14:50:06.161Z,58.61
2018-12-06T14:52:36.024Z,58.94
2018-12-06T14:55:06.213Z,58.87
2018-12-06T14:57:36.085Z,59.14
2018-12-06T15:00:08.046Z,59.30
2018-12-06T15:02:37.959Z,58.97
2018-12-06T15:05:09.680Z,58.90
2018-12-06T15:07:39.601Z,58.99
2018-12-06T15:10:09.710Z,59.35
2018-12-06T15:12:39.604Z,59.46
2018-12-06T15:15:09.749Z,59.25
2018-12-06T15:17:41.937Z,59.71
2018-12-06T15:20:13.142Z,60.03
2018-12-06T15:22:43.583Z,60.20
2018-12-06T15:25:13.937Z,59.95
2018-12-06T15:27:43.953Z,59.86
2018-12-06T15:30:13.815Z,60.22
2018-12-06T15:32:48.185Z,60.63
2018-12-06T15:35:20.163Z,60.37
2018-12-06T15:37:50.058Z,60.16
2018-12-06T15:40:20.066Z,60.33
2018-12-06T15:42:50.009Z,60.27
2018-12-06T15:45:19.961Z,60.48
2018-12-06T15:47:50.093Z,60.39
2018-12-06T15:50:19.971Z,60.33
2018-12-06T15:52:50.610Z,60.74
2018-12-06T15:55:20.620Z,60.94
2018-12-06T15:57:50.545Z,61.10
2018-12-06T16:00:20.586Z,60.96
2018-12-06T16:02:52.011Z,60.97
2018-12-06T16:05:22.153Z,61.34
2018-12-06T16:07:52.172Z,60.96
2018-12-06T16:10:22.153Z,60.95
2018-12-06T16:12:52.268Z,61.53
2018-12-06T16:15:22.403Z,61.06
2018-12-06T16:17:52.350Z,61.20
2018-12-06T16:20:22.482Z,61.51
2018-12-06T16:22:52.390Z,61.77
2018-12-06T16:25:22.351Z,61.86
2018-12-06T16:27:52.263Z,61.95
2018-12-06T16:30:22.295Z,61.70
2018-12-06T16:32:52.350Z,61.85
2018-12-06T16:35:22.213Z,61.45
2018-12-06T16:37:52.283Z,61.77
2018-12-06T16:40:22.221Z,61.51
2018-12-06T16:42:52.137Z,61.76
2018-12-06T16:45:22.425Z,61.48
2018-12-06T16:47:52.378Z,62.04
2018-12-06T16:50:22.515Z,61.96
2018-12-06T16:52:52.417Z,62.25
2018-12-06T16:55:22.374Z,62.49
2018-12-06T16:57:52.403Z,62.42
2018-12-06T17:00:22.541Z,62.12
2018-12-06T17:02:53.021Z,62.56
2018-12-06T17:05:22.867Z,62.93
2018-12-06T17:07:52.748Z,62.91
2018-12-06T17:10:22.619Z,62.88
2018-12-06T17:12:52.907Z,63.17
2018-12-06T17:15:22.923Z,63.23
2018-12-06T17:17:52.897Z,62.80
2018-12-06T17:20:22.760Z,63.07
2018-12-06T17:22:53.267Z,63.10
2018-12-06T17:25:23.207Z,62.73
2018-12-06T17:27:53.549Z,63.02
2018-12-06T17:30:23.432Z,62.74
2018-12-06T17:32:54.137Z,62.67
2018-12-06T17:35:24.096Z,63.27
2018-12-06T17:37:54.029Z,62.66
2018-12-06T17:40:23.923Z,62.72
2018-12-06T17:42:54.144Z,62.45
2018-12-06T17:45:24.256Z,62.72
2018-12-06T17:47:54.212Z,62.42
2018-12-06T17:50:24.763Z,62.45
2018-12-06T17:52:55.090Z,62.51
2018-12-06T17:55:25.140Z,62.64
2018-12-06T17:57:55.042Z,62.11
2018-12-06T18:00:25.083Z,62.12
2018-12-06T18:02:55.001Z,62.17
2018-12-06T18:05:53.095Z,62.59
2018-12-06T18:08:24.120Z,62.05
2018-12-06T18:10:54.303Z,62.32
2018-12-06T18:13:24.573Z,62.08
2018-12-06T18:15:54.999Z,62.40
2018-12-06T18:18:25.056Z,62.15
2018-12-06T18:20:55.116Z,62.48
2018-12-06T18:23:25.122Z,62.52
2018-12-06T18:25:55.325Z,62.16
2018-12-06T18:28:25.408Z,62.02
2018-12-06T18:30:59.192Z,62.30
2018-12-06T18:33:30.528Z,62.31
2018-12-06T18:36:01.502Z,62.18
2018-12-06T18:38:31.722Z,61.91
2018-12-06T18:41:02.010Z,61.89
2018-12-06T18:43:32.444Z,61.75
2018-12-06T18:46:02.511Z,62.36
2018-12-06T18:48:32.773Z,62.16
2018-12-06T18:51:02.836Z,62.52
2018-12-06T18:53:32.988Z,62.38
2018-12-06T18:56:03.735Z,62.41
2018-12-06T18:58:34.733Z,62.48
2018-12-06T19:01:05.374Z,62.79
2018-12-06T19:03:35.384Z,62.75
2018-12-06T19:06:05.406Z,62.40
2018-12-06T19:08:35.445Z,62.78
2018-12-06T19:11:06.507Z,62.95
2018-12-06T19:13:36.951Z,62.85
2018-12-06T19:16:07.294Z,62.48
2018-12-06T19:18:37.854Z,62.70
2018-12-06T19:21:10.217Z,62.40
2018-12-06T19:23:40.241Z,62.48
2018-12-06T19:26:10.258Z,62.41
2018-12-06T19:28:44.571Z,62.74
2018-12-06T19:31:14.617Z,62.77
2018-12-06T19:33:44.896Z,62.71
2018-12-06T19:36:15.190Z,62.53
2018-12-06T19:38:45.775Z,62.50
2018-12-06T19:41:15.870Z,62.15
2018-12-06T19:43:45.940Z,62.31
2018-12-06T19:46:15.936Z,61.92
2018-12-06T19:48:46.341Z,62.24
2018-12-06T19:51:16.394Z,62.31
2018-12-06T19:53:46.860Z,62.12
2018-12-06T19:56:16.997Z,62.11
2018-12-06T19:58:47.103Z,61.95
2018-12-06T20:01:17.220Z,61.52
2018-12-06T20:03:47.950Z,61.59
2018-12-06T20:06:19.504Z,61.40
2018-12-06T20:08:49.577Z,61.35
2018-12-06T20:11:20.169Z,61.44
2018-12-06T20:13:50.254Z,61.89
2018-12-06T20:16:20.533Z,61.83
2018-12-06T20:18:51.207Z,61.67
2018-12-06T20:21:21.182Z,61.29
2018-12-06T20:23:51.964Z,61.35
2018-12-06T20:26:22.177Z,61.36
2018-12-06T20:28:52.237Z,61.17
2018-12-06T20:31:26.443Z,61.41
2018-12-06T20:33:57.545Z,61.25
2018-12-06T20:36:30.706Z,61.11
2018-12-06T20:39:02.809Z,61.21
2018-12-06T20:41:33.504Z,61.35
2018-12-06T20:44:03.622Z,61.31
2018-12-06T20:46:33.514Z,60.97
2018-12-06T20:49:05.670Z,61.29
2018-12-06T20:51:36.556Z,61.08
2018-12-06T20:54:06.668Z,60.73
2018-12-06T20:56:36.699Z,60.63
2018-12-06T20:59:06.790Z,60.77
2018-12-06T21:01:36.787Z,61.13
2018-12-06T21:04:06.723Z,60.95
2018-12-06T21:06:38.027Z,60.77
2018-12-06T21:09:20.702Z,60.67
2018-12-06T21:11:52.127Z,60.63
2018-12-06T21:14:25.485Z,60.73
2018-12-06T21:16:55.754Z,60.51
2018-12-06T21:19:29.887Z,60.55
2018-12-06T21:22:00.140Z,60.40
2018-12-06T21:24:30.698Z,60.39
2018-12-06T21:27:00.896Z,60.66
2018-12-06T21:29:31.465Z,60.42
2018-12-06T21:32:01.504Z,60.51
2018-12-06T21:34:31.559Z,60.12
2018-12-06T21:37:01.585Z,60.53
2018-12-06T21:39:31.662Z,60.06
2018-12-06T21:42:01.567Z,60.31
2018-12-06T21:44:31.707Z,59.85
2018-12-06T21:47:01.715Z,59.69
2018-12-06T21:49:31.684Z,60.00
2018-12-06T21:52:01.985Z,59.63
2018-12-06T21:54:32.054Z,59.85
2018-12-06T21:57:01.979Z,59.83
2018-12-06T21:59:31.910Z,59.65
2018-12-06T22:02:13.198Z,59.80
2018-12-06T22:04:43.631Z,59.45
2018-12-06T22:07:13.752Z,59.81
2018-12-06T22:09:44.011Z,59.77
2018-12-06T22:12:13.920Z,59.89
2018-12-06T22:14:44.026Z,59.56
2018-12-06T22:17:14.181Z,60.03
2018-12-06T22:19:44.061Z,59.47
2018-12-06T22:22:14.072Z,59.97
2018-12-06T22:24:44.685Z,60.00
2018-12-06T22:27:15.279Z,60.13
2018-12-06T22:29:45.719Z,60.12
2018-12-06T22:32:15.768Z,60.24
2018-12-06T22:34:45.759Z,59.86
2018-12-06T22:37:15.590Z,59.81
2018-12-06T22:39:45.483Z,60.11
2018-12-06T22:42:15.322Z,59.96
2018-12-06T22:44:45.423Z,60.10
2018-12-06T22:47:17.528Z,59.90
2018-12-06T22:49:47.518Z,59.89
2018-12-06T22:52:17.476Z,59.75
2018-12-06T22:54:47.440Z,59.60
2018-12-06T22:57:17.741Z,59.90
2018-12-06T22:59:47.758Z,59.83
2018-12-06T23:02:18.614Z,59.31
2018-12-06T23:04:48.622Z,59.31
2018-12-06T23:07:18.511Z,59.51
2018-12-06T23:09:48.529Z,59.20
2018-12-06T23:12:18.376Z,59.50
2018-12-06T23:14:48.247Z,59.25
2018-12-06T23:17:18.166Z,59.27
2018-12-06T23:19:48.073Z,59.01
2018-12-06T23:22:17.958Z,58.84
2018-12-06T23:24:47.870Z,59.38
2018-12-06T23:27:17.818Z,59.49
2018-12-06T23:29:47.710Z,59.34
2018-12-06T23:32:17.619Z,58.98
2018-12-06T23:34:47.553Z,59.16
2018-12-06T23:37:17.486Z,58.78
2018-12-06T23:39:47.388Z,59.32
2018-12-06T23:42:17.985Z,59.15
2018-12-06T23:44:47.973Z,58.77
2018-12-06T23:47:17.841Z,58.56
2018-12-06T23:49:47.750Z,58.87
2018-12-06T23:52:17.651Z,58.96
2018-12-06T23:54:47.562Z,58.80
2018-12-06T23:57:17.459Z,59.14
2018-12-06T23:59:47.390Z,58.97
